sensor_id;sensor_type;location;lat;lon;timestamp;P1;durP1;ratioP1;P2;durP2;ratioP2
11135;SDS011;5622;50.840;4.948;2023-06-04T00:00:13;3.07;;;1.50;;
11135;SDS011;5622;50.840;4.948;2023-06-04T00:02:40;2.50;;;1.50;;
11135;SDS011;5622;50.840;4.948;2023-06-04T00:05:09;1.83;;;1.40;;
11135;SDS011;5622;50.840;4.948;2023-06-04T00:07:36;3.37;;;1.60;;
11135;SDS011;5622;50.840;4.948;2023-06-04T00:10:03;1.90;;;1.60;;
11135;SDS011;5622;50.840;4.948;2023-06-04T00:12:31;2.20;;;1.57;;
11135;SDS011;5622;50.840;4.948;2023-06-04T00:14:58;1.60;;;1.50;;
11135;SDS011;5622;50.840;4.948;2023-06-04T00:17:25;2.33;;;1.60;;
11135;SDS011;5622;50.840;4.948;2023-06-04T00:23:16;2.33;;;1.83;;
11135;SDS011;5622;50.840;4.948;2023-06-04T00:25:43;2.03;;;1.53;;
11135;SDS011;5622;50.840;4.948;2023-06-04T00:28:10;4.13;;;1.70;;
11135;SDS011;5622;50.840;4.948;2023-06-04T00:30:37;2.57;;;1.60;;
11135;SDS011;5622;50.840;4.948;2023-06-04T00:33:04;2.73;;;1.50;;
11135;SDS011;5622;50.840;4.948;2023-06-04T00:35:32;2.10;;;1.90;;
11135;SDS011;5622;50.840;4.948;2023-06-04T00:37:59;2.67;;;1.83;;
11135;SDS011;5622;50.840;4.948;2023-06-04T00:40:28;2.60;;;1.60;;
11135;SDS011;5622;50.840;4.948;2023-06-04T00:42:55;2.23;;;1.87;;
11135;SDS011;5622;50.840;4.948;2023-06-04T00:45:22;1.60;;;1.50;;
11135;SDS011;5622;50.840;4.948;2023-06-04T00:47:51;3.00;;;1.77;;
11135;SDS011;5622;50.840;4.948;2023-06-04T00:50:18;1.50;;;1.40;;
11135;SDS011;5622;50.840;4.948;2023-06-04T00:52:47;1.60;;;1.50;;
11135;SDS011;5622;50.840;4.948;2023-06-04T00:55:14;1.73;;;1.60;;
11135;SDS011;5622;50.840;4.948;2023-06-04T00:57:45;3.20;;;1.47;;
11135;SDS011;5622;50.840;4.948;2023-06-04T01:00:12;2.60;;;1.63;;
11135;SDS011;5622;50.840;4.948;2023-06-04T01:02:40;4.30;;;1.80;;
11135;SDS011;5622;50.840;4.948;2023-06-04T01:05:11;2.53;;;1.90;;
11135;SDS011;5622;50.840;4.948;2023-06-04T01:07:43;1.97;;;1.70;;
11135;SDS011;5622;50.840;4.948;2023-06-04T01:10:12;2.00;;;1.57;;
11135;SDS011;5622;50.840;4.948;2023-06-04T01:12:39;5.27;;;2.10;;
11135;SDS011;5622;50.840;4.948;2023-06-04T01:15:09;4.33;;;1.83;;
11135;SDS011;5622;50.840;4.948;2023-06-04T01:17:39;2.27;;;1.57;;
11135;SDS011;5622;50.840;4.948;2023-06-04T01:20:16;2.47;;;1.73;;
11135;SDS011;5622;50.840;4.948;2023-06-04T01:22:54;2.23;;;1.50;;
11135;SDS011;5622;50.840;4.948;2023-06-04T01:25:32;1.97;;;1.80;;
11135;SDS011;5622;50.840;4.948;2023-06-04T01:28:02;3.40;;;1.97;;
11135;SDS011;5622;50.840;4.948;2023-06-04T01:30:32;2.57;;;1.87;;
11135;SDS011;5622;50.840;4.948;2023-06-04T01:33:01;2.47;;;1.97;;
11135;SDS011;5622;50.840;4.948;2023-06-04T01:35:29;4.93;;;2.00;;
11135;SDS011;5622;50.840;4.948;2023-06-04T01:37:57;2.47;;;1.87;;
11135;SDS011;5622;50.840;4.948;2023-06-04T01:40:24;3.00;;;1.80;;
11135;SDS011;5622;50.840;4.948;2023-06-04T01:42:51;2.10;;;1.80;;
11135;SDS011;5622;50.840;4.948;2023-06-04T01:45:20;3.37;;;1.90;;
11135;SDS011;5622;50.840;4.948;2023-06-04T01:47:49;3.10;;;1.80;;
11135;SDS011;5622;50.840;4.948;2023-06-04T01:50:17;3.80;;;2.17;;
11135;SDS011;5622;50.840;4.948;2023-06-04T01:52:44;6.83;;;2.07;;
11135;SDS011;5622;50.840;4.948;2023-06-04T01:55:12;2.10;;;1.70;;
11135;SDS011;5622;50.840;4.948;2023-06-04T01:57:41;2.17;;;1.77;;
11135;SDS011;5622;50.840;4.948;2023-06-04T02:00:09;2.37;;;1.90;;
11135;SDS011;5622;50.840;4.948;2023-06-04T02:02:38;2.33;;;1.90;;
11135;SDS011;5622;50.840;4.948;2023-06-04T02:05:07;5.43;;;2.00;;
11135;SDS011;5622;50.840;4.948;2023-06-04T02:07:35;4.70;;;1.70;;
11135;SDS011;5622;50.840;4.948;2023-06-04T02:10:04;3.00;;;2.00;;
11135;SDS011;5622;50.840;4.948;2023-06-04T02:12:31;2.37;;;1.70;;
11135;SDS011;5622;50.840;4.948;2023-06-04T02:14:58;2.90;;;2.00;;
11135;SDS011;5622;50.840;4.948;2023-06-04T02:17:25;2.97;;;1.90;;
11135;SDS011;5622;50.840;4.948;2023-06-04T02:19:52;5.70;;;2.83;;
11135;SDS011;5622;50.840;4.948;2023-06-04T02:22:23;2.70;;;1.77;;
11135;SDS011;5622;50.840;4.948;2023-06-04T02:24:51;3.57;;;2.10;;
11135;SDS011;5622;50.840;4.948;2023-06-04T02:27:18;2.53;;;2.17;;
11135;SDS011;5622;50.840;4.948;2023-06-04T02:29:45;2.63;;;2.00;;
11135;SDS011;5622;50.840;4.948;2023-06-04T02:32:13;4.67;;;2.10;;
11135;SDS011;5622;50.840;4.948;2023-06-04T02:34:40;4.30;;;2.07;;
11135;SDS011;5622;50.840;4.948;2023-06-04T02:37:07;5.50;;;2.20;;
11135;SDS011;5622;50.840;4.948;2023-06-04T02:39:35;5.07;;;2.50;;
11135;SDS011;5622;50.840;4.948;2023-06-04T02:42:02;5.13;;;2.17;;
11135;SDS011;5622;50.840;4.948;2023-06-04T02:44:30;3.50;;;2.27;;
11135;SDS011;5622;50.840;4.948;2023-06-04T02:46:57;5.17;;;2.00;;
11135;SDS011;5622;50.840;4.948;2023-06-04T02:49:24;3.13;;;1.70;;
11135;SDS011;5622;50.840;4.948;2023-06-04T02:51:51;3.27;;;2.20;;
11135;SDS011;5622;50.840;4.948;2023-06-04T02:54:18;3.67;;;2.00;;
11135;SDS011;5622;50.840;4.948;2023-06-04T02:56:47;6.30;;;2.40;;
11135;SDS011;5622;50.840;4.948;2023-06-04T02:59:14;2.50;;;2.10;;
11135;SDS011;5622;50.840;4.948;2023-06-04T03:01:41;2.47;;;1.90;;
11135;SDS011;5622;50.840;4.948;2023-06-04T03:04:09;3.53;;;2.30;;
11135;SDS011;5622;50.840;4.948;2023-06-04T03:06:40;2.40;;;2.10;;
11135;SDS011;5622;50.840;4.948;2023-06-04T03:09:09;2.20;;;2.00;;
11135;SDS011;5622;50.840;4.948;2023-06-04T03:11:37;4.73;;;2.10;;
11135;SDS011;5622;50.840;4.948;2023-06-04T03:14:06;2.80;;;2.17;;
11135;SDS011;5622;50.840;4.948;2023-06-04T03:16:33;2.60;;;2.07;;
11135;SDS011;5622;50.840;4.948;2023-06-04T03:19:00;3.37;;;2.10;;
11135;SDS011;5622;50.840;4.948;2023-06-04T03:21:28;4.97;;;2.50;;
11135;SDS011;5622;50.840;4.948;2023-06-04T03:23:55;3.57;;;2.27;;
11135;SDS011;5622;50.840;4.948;2023-06-04T03:26:22;4.87;;;2.63;;
11135;SDS011;5622;50.840;4.948;2023-06-04T03:28:49;3.30;;;2.30;;
11135;SDS011;5622;50.840;4.948;2023-06-04T03:31:18;7.03;;;2.30;;
11135;SDS011;5622;50.840;4.948;2023-06-04T03:33:45;3.77;;;2.20;;
11135;SDS011;5622;50.840;4.948;2023-06-04T03:36:13;5.67;;;2.30;;
11135;SDS011;5622;50.840;4.948;2023-06-04T03:38:41;3.93;;;2.30;;
11135;SDS011;5622;50.840;4.948;2023-06-04T03:41:11;4.70;;;2.60;;
11135;SDS011;5622;50.840;4.948;2023-06-04T03:43:38;2.47;;;2.00;;
11135;SDS011;5622;50.840;4.948;2023-06-04T03:46:05;3.53;;;2.23;;
11135;SDS011;5622;50.840;4.948;2023-06-04T03:48:34;3.27;;;2.03;;
11135;SDS011;5622;50.840;4.948;2023-06-04T03:51:01;5.87;;;2.60;;
11135;SDS011;5622;50.840;4.948;2023-06-04T03:53:28;4.57;;;2.33;;
11135;SDS011;5622;50.840;4.948;2023-06-04T03:55:55;2.80;;;2.50;;
11135;SDS011;5622;50.840;4.948;2023-06-04T03:58:22;3.83;;;2.23;;
11135;SDS011;5622;50.840;4.948;2023-06-04T04:00:49;3.13;;;2.30;;
11135;SDS011;5622;50.840;4.948;2023-06-04T04:03:16;5.23;;;2.27;;
11135;SDS011;5622;50.840;4.948;2023-06-04T04:05:45;3.20;;;2.50;;
11135;SDS011;5622;50.840;4.948;2023-06-04T04:08:12;3.10;;;2.50;;
11135;SDS011;5622;50.840;4.948;2023-06-04T04:10:41;5.47;;;2.57;;
11135;SDS011;5622;50.840;4.948;2023-06-04T04:13:08;4.77;;;2.57;;
11135;SDS011;5622;50.840;4.948;2023-06-04T04:15:35;2.83;;;2.33;;
11135;SDS011;5622;50.840;4.948;2023-06-04T04:18:03;2.90;;;2.60;;
11135;SDS011;5622;50.840;4.948;2023-06-04T04:20:33;2.80;;;2.50;;
11135;SDS011;5622;50.840;4.948;2023-06-04T04:23:02;4.83;;;2.60;;
11135;SDS011;5622;50.840;4.948;2023-06-04T04:25:29;4.03;;;2.50;;
11135;SDS011;5622;50.840;4.948;2023-06-04T04:27:57;3.77;;;2.60;;
11135;SDS011;5622;50.840;4.948;2023-06-04T04:30:25;5.23;;;2.53;;
11135;SDS011;5622;50.840;4.948;2023-06-04T04:32:53;3.23;;;2.33;;
11135;SDS011;5622;50.840;4.948;2023-06-04T04:35:21;4.47;;;2.40;;
11135;SDS011;5622;50.840;4.948;2023-06-04T04:37:48;5.87;;;3.37;;
11135;SDS011;5622;50.840;4.948;2023-06-04T04:40:17;5.13;;;2.53;;
11135;SDS011;5622;50.840;4.948;2023-06-04T04:42:44;4.03;;;2.70;;
11135;SDS011;5622;50.840;4.948;2023-06-04T04:45:11;2.57;;;2.30;;
11135;SDS011;5622;50.840;4.948;2023-06-04T04:47:38;3.47;;;2.80;;
11135;SDS011;5622;50.840;4.948;2023-06-04T04:50:06;4.63;;;2.67;;
11135;SDS011;5622;50.840;4.948;2023-06-04T04:52:33;5.00;;;2.53;;
11135;SDS011;5622;50.840;4.948;2023-06-04T04:55:00;2.90;;;2.60;;
11135;SDS011;5622;50.840;4.948;2023-06-04T04:57:29;4.27;;;2.80;;
11135;SDS011;5622;50.840;4.948;2023-06-04T04:59:56;5.03;;;3.20;;
11135;SDS011;5622;50.840;4.948;2023-06-04T05:02:23;3.70;;;2.63;;
11135;SDS011;5622;50.840;4.948;2023-06-04T05:04:50;2.67;;;2.30;;
11135;SDS011;5622;50.840;4.948;2023-06-04T05:07:17;3.70;;;2.60;;
11135;SDS011;5622;50.840;4.948;2023-06-04T05:09:46;4.43;;;2.83;;
11135;SDS011;5622;50.840;4.948;2023-06-04T05:12:13;4.37;;;2.90;;
11135;SDS011;5622;50.840;4.948;2023-06-04T05:14:42;2.73;;;2.53;;
11135;SDS011;5622;50.840;4.948;2023-06-04T05:17:09;3.97;;;2.93;;
11135;SDS011;5622;50.840;4.948;2023-06-04T05:19:38;2.77;;;2.47;;
11135;SDS011;5622;50.840;4.948;2023-06-04T05:22:05;4.43;;;2.80;;
11135;SDS011;5622;50.840;4.948;2023-06-04T05:24:32;3.10;;;2.60;;
11135;SDS011;5622;50.840;4.948;2023-06-04T05:26:59;2.57;;;2.37;;
11135;SDS011;5622;50.840;4.948;2023-06-04T05:29:28;4.43;;;2.73;;
11135;SDS011;5622;50.840;4.948;2023-06-04T05:31:57;3.40;;;2.60;;
11135;SDS011;5622;50.840;4.948;2023-06-04T05:34:24;4.80;;;2.70;;
11135;SDS011;5622;50.840;4.948;2023-06-04T05:36:51;7.03;;;3.43;;
11135;SDS011;5622;50.840;4.948;2023-06-04T05:39:19;4.30;;;2.90;;
11135;SDS011;5622;50.840;4.948;2023-06-04T05:41:49;5.93;;;3.20;;
11135;SDS011;5622;50.840;4.948;2023-06-04T05:44:16;4.73;;;3.23;;
11135;SDS011;5622;50.840;4.948;2023-06-04T05:46:43;5.47;;;2.80;;
11135;SDS011;5622;50.840;4.948;2023-06-04T05:49:11;4.67;;;3.23;;
11135;SDS011;5622;50.840;4.948;2023-06-04T05:51:39;5.30;;;3.17;;
11135;SDS011;5622;50.840;4.948;2023-06-04T05:54:06;5.00;;;3.00;;
11135;SDS011;5622;50.840;4.948;2023-06-04T05:56:33;4.13;;;2.97;;
11135;SDS011;5622;50.840;4.948;2023-06-04T05:59:00;4.27;;;3.00;;
11135;SDS011;5622;50.840;4.948;2023-06-04T06:01:27;4.83;;;3.20;;
11135;SDS011;5622;50.840;4.948;2023-06-04T06:03:54;6.00;;;3.50;;
11135;SDS011;5622;50.840;4.948;2023-06-04T06:06:23;4.13;;;3.13;;
11135;SDS011;5622;50.840;4.948;2023-06-04T06:08:50;5.87;;;3.23;;
11135;SDS011;5622;50.840;4.948;2023-06-04T06:11:17;5.20;;;2.90;;
11135;SDS011;5622;50.840;4.948;2023-06-04T06:13:44;5.13;;;3.10;;
11135;SDS011;5622;50.840;4.948;2023-06-04T06:16:11;5.23;;;3.53;;
11135;SDS011;5622;50.840;4.948;2023-06-04T06:18:38;4.87;;;3.30;;
11135;SDS011;5622;50.840;4.948;2023-06-04T06:21:06;3.47;;;2.90;;
11135;SDS011;5622;50.840;4.948;2023-06-04T06:23:34;5.20;;;3.27;;
11135;SDS011;5622;50.840;4.948;2023-06-04T06:26:01;4.50;;;3.10;;
11135;SDS011;5622;50.840;4.948;2023-06-04T06:28:33;6.50;;;3.00;;
11135;SDS011;5622;50.840;4.948;2023-06-04T06:31:01;5.33;;;2.90;;
11135;SDS011;5622;50.840;4.948;2023-06-04T06:33:28;4.87;;;3.10;;
11135;SDS011;5622;50.840;4.948;2023-06-04T06:35:56;5.37;;;3.00;;
11135;SDS011;5622;50.840;4.948;2023-06-04T06:38:25;7.43;;;3.37;;
11135;SDS011;5622;50.840;4.948;2023-06-04T06:40:54;6.40;;;3.40;;
11135;SDS011;5622;50.840;4.948;2023-06-04T06:43:21;5.43;;;3.57;;
11135;SDS011;5622;50.840;4.948;2023-06-04T06:45:48;5.53;;;2.83;;
11135;SDS011;5622;50.840;4.948;2023-06-04T06:48:16;6.50;;;3.23;;
11135;SDS011;5622;50.840;4.948;2023-06-04T06:50:46;4.67;;;3.07;;
11135;SDS011;5622;50.840;4.948;2023-06-04T06:53:13;5.63;;;3.30;;
11135;SDS011;5622;50.840;4.948;2023-06-04T06:55:40;6.70;;;3.27;;
11135;SDS011;5622;50.840;4.948;2023-06-04T06:58:09;3.60;;;3.20;;
11135;SDS011;5622;50.840;4.948;2023-06-04T07:00:36;5.43;;;3.07;;
11135;SDS011;5622;50.840;4.948;2023-06-04T07:03:03;7.40;;;3.67;;
11135;SDS011;5622;50.840;4.948;2023-06-04T07:05:30;7.67;;;3.20;;
11135;SDS011;5622;50.840;4.948;2023-06-04T07:07:57;4.50;;;2.93;;
11135;SDS011;5622;50.840;4.948;2023-06-04T07:10:26;5.13;;;3.40;;
11135;SDS011;5622;50.840;4.948;2023-06-04T07:12:53;5.03;;;2.63;;
11135;SDS011;5622;50.840;4.948;2023-06-04T07:15:21;4.33;;;3.37;;
11135;SDS011;5622;50.840;4.948;2023-06-04T07:17:48;3.80;;;2.90;;
11135;SDS011;5622;50.840;4.948;2023-06-04T07:20:16;4.10;;;2.97;;
11135;SDS011;5622;50.840;4.948;2023-06-04T07:22:43;6.03;;;2.70;;
11135;SDS011;5622;50.840;4.948;2023-06-04T07:25:10;7.23;;;3.50;;
11135;SDS011;5622;50.840;4.948;2023-06-04T07:27:37;3.60;;;2.73;;
11135;SDS011;5622;50.840;4.948;2023-06-04T07:30:05;4.30;;;2.80;;
11135;SDS011;5622;50.840;4.948;2023-06-04T07:32:35;3.77;;;2.77;;
11135;SDS011;5622;50.840;4.948;2023-06-04T07:35:02;3.97;;;2.67;;
11135;SDS011;5622;50.840;4.948;2023-06-04T07:37:29;4.50;;;2.70;;
11135;SDS011;5622;50.840;4.948;2023-06-04T07:39:57;5.20;;;2.70;;
11135;SDS011;5622;50.840;4.948;2023-06-04T07:42:24;4.50;;;2.77;;
11135;SDS011;5622;50.840;4.948;2023-06-04T07:44:51;2.73;;;2.50;;
11135;SDS011;5622;50.840;4.948;2023-06-04T07:47:18;4.37;;;2.67;;
11135;SDS011;5622;50.840;4.948;2023-06-04T07:49:46;4.17;;;2.60;;
11135;SDS011;5622;50.840;4.948;2023-06-04T07:52:13;6.07;;;2.63;;
11135;SDS011;5622;50.840;4.948;2023-06-04T07:54:41;4.83;;;2.37;;
11135;SDS011;5622;50.840;4.948;2023-06-04T07:57:08;5.03;;;2.73;;
11135;SDS011;5622;50.840;4.948;2023-06-04T07:59:36;7.27;;;2.23;;
11135;SDS011;5622;50.840;4.948;2023-06-04T08:02:03;5.67;;;2.67;;
11135;SDS011;5622;50.840;4.948;2023-06-04T08:04:30;3.57;;;2.70;;
11135;SDS011;5622;50.840;4.948;2023-06-04T08:06:59;6.00;;;2.27;;
11135;SDS011;5622;50.840;4.948;2023-06-04T08:09:27;2.83;;;2.30;;
11135;SDS011;5622;50.840;4.948;2023-06-04T08:11:54;5.53;;;2.50;;
11135;SDS011;5622;50.840;4.948;2023-06-04T08:14:21;4.50;;;2.67;;
11135;SDS011;5622;50.840;4.948;2023-06-04T08:16:49;3.00;;;2.40;;
11135;SDS011;5622;50.840;4.948;2023-06-04T08:19:16;3.30;;;2.20;;
11135;SDS011;5622;50.840;4.948;2023-06-04T08:21:44;3.40;;;2.80;;
11135;SDS011;5622;50.840;4.948;2023-06-04T08:24:14;4.10;;;2.30;;
11135;SDS011;5622;50.840;4.948;2023-06-04T08:26:41;3.97;;;3.00;;
11135;SDS011;5622;50.840;4.948;2023-06-04T08:29:08;6.50;;;2.10;;
11135;SDS011;5622;50.840;4.948;2023-06-04T08:31:35;4.13;;;2.30;;
11135;SDS011;5622;50.840;4.948;2023-06-04T08:34:04;3.60;;;2.60;;
11135;SDS011;5622;50.840;4.948;2023-06-04T08:36:31;5.10;;;2.77;;
11135;SDS011;5622;50.840;4.948;2023-06-04T08:38:59;9.97;;;2.50;;
11135;SDS011;5622;50.840;4.948;2023-06-04T08:41:29;4.37;;;2.50;;
11135;SDS011;5622;50.840;4.948;2023-06-04T08:44:00;5.82;;;2.42;;
11135;SDS011;5622;50.840;4.948;2023-06-04T08:46:31;3.35;;;2.33;;
11135;SDS011;5622;50.840;4.948;2023-06-04T08:48:59;4.05;;;2.70;;
11135;SDS011;5622;50.840;4.948;2023-06-04T08:51:27;3.90;;;2.40;;
11135;SDS011;5622;50.840;4.948;2023-06-04T08:53:57;5.65;;;2.30;;
11135;SDS011;5622;50.840;4.948;2023-06-04T08:56:29;5.93;;;2.50;;
11135;SDS011;5622;50.840;4.948;2023-06-04T08:58:59;5.22;;;2.63;;
11135;SDS011;5622;50.840;4.948;2023-06-04T09:01:27;2.78;;;2.05;;
11135;SDS011;5622;50.840;4.948;2023-06-04T09:03:55;3.65;;;2.17;;
11135;SDS011;5622;50.840;4.948;2023-06-04T09:06:23;7.50;;;2.63;;
11135;SDS011;5622;50.840;4.948;2023-06-04T09:08:51;2.95;;;2.22;;
11135;SDS011;5622;50.840;4.948;2023-06-04T09:11:22;5.40;;;2.53;;
11135;SDS011;5622;50.840;4.948;2023-06-04T09:13:54;2.60;;;2.05;;
11135;SDS011;5622;50.840;4.948;2023-06-04T09:16:25;2.75;;;2.05;;
11135;SDS011;5622;50.840;4.948;2023-06-04T09:18:52;4.45;;;2.10;;
11135;SDS011;5622;50.840;4.948;2023-06-04T09:21:20;3.72;;;2.30;;
11135;SDS011;5622;50.840;4.948;2023-06-04T09:23:47;2.40;;;2.20;;
11135;SDS011;5622;50.840;4.948;2023-06-04T09:26:14;4.57;;;2.53;;
11135;SDS011;5622;50.840;4.948;2023-06-04T09:28:41;4.88;;;2.40;;
11135;SDS011;5622;50.840;4.948;2023-06-04T09:31:12;7.03;;;2.72;;
11135;SDS011;5622;50.840;4.948;2023-06-04T09:33:44;6.53;;;2.38;;
11135;SDS011;5622;50.840;4.948;2023-06-04T09:36:12;5.53;;;1.92;;
11135;SDS011;5622;50.840;4.948;2023-06-04T09:38:39;2.47;;;2.17;;
11135;SDS011;5622;50.840;4.948;2023-06-04T09:41:10;3.53;;;2.25;;
11135;SDS011;5622;50.840;4.948;2023-06-04T09:43:38;3.65;;;2.20;;
11135;SDS011;5622;50.840;4.948;2023-06-04T09:46:10;4.28;;;1.88;;
11135;SDS011;5622;50.840;4.948;2023-06-04T09:48:39;5.72;;;2.10;;
11135;SDS011;5622;50.840;4.948;2023-06-04T09:51:07;5.10;;;2.05;;
11135;SDS011;5622;50.840;4.948;2023-06-04T09:53:35;4.55;;;2.35;;
11135;SDS011;5622;50.840;4.948;2023-06-04T09:56:03;3.80;;;1.77;;
11135;SDS011;5622;50.840;4.948;2023-06-04T09:58:33;4.43;;;2.28;;
11135;SDS011;5622;50.840;4.948;2023-06-04T10:01:01;4.18;;;2.10;;
11135;SDS011;5622;50.840;4.948;2023-06-04T10:03:34;5.00;;;2.08;;
11135;SDS011;5622;50.840;4.948;2023-06-04T10:06:03;3.45;;;2.05;;
11135;SDS011;5622;50.840;4.948;2023-06-04T10:08:31;4.00;;;2.17;;
11135;SDS011;5622;50.840;4.948;2023-06-04T10:11:00;3.17;;;2.00;;
11135;SDS011;5622;50.840;4.948;2023-06-04T10:13:28;4.72;;;1.90;;
11135;SDS011;5622;50.840;4.948;2023-06-04T10:16:01;4.82;;;2.00;;
11135;SDS011;5622;50.840;4.948;2023-06-04T10:18:28;5.20;;;2.40;;
11135;SDS011;5622;50.840;4.948;2023-06-04T10:20:57;4.53;;;2.15;;
11135;SDS011;5622;50.840;4.948;2023-06-04T10:23:25;3.50;;;2.10;;
11135;SDS011;5622;50.840;4.948;2023-06-04T10:25:54;6.70;;;2.00;;
11135;SDS011;5622;50.840;4.948;2023-06-04T10:28:23;3.15;;;1.90;;
11135;SDS011;5622;50.840;4.948;2023-06-04T10:30:53;2.08;;;1.88;;
11135;SDS011;5622;50.840;4.948;2023-06-04T10:33:21;3.10;;;1.80;;
11135;SDS011;5622;50.840;4.948;2023-06-04T10:35:49;3.80;;;2.10;;
11135;SDS011;5622;50.840;4.948;2023-06-04T10:38:22;5.05;;;2.20;;
11135;SDS011;5622;50.840;4.948;2023-06-04T10:40:49;3.15;;;2.10;;
11135;SDS011;5622;50.840;4.948;2023-06-04T10:43:17;2.15;;;1.95;;
11135;SDS011;5622;50.840;4.948;2023-06-04T10:45:45;3.05;;;2.00;;
11135;SDS011;5622;50.840;4.948;2023-06-04T10:48:12;2.88;;;2.10;;
11135;SDS011;5622;50.840;4.948;2023-06-04T10:50:49;4.95;;;2.20;;
11135;SDS011;5622;50.840;4.948;2023-06-04T10:53:18;4.35;;;2.08;;
11135;SDS011;5622;50.840;4.948;2023-06-04T10:55:48;7.18;;;2.28;;
11135;SDS011;5622;50.840;4.948;2023-06-04T10:58:16;3.75;;;2.28;;
11135;SDS011;5622;50.840;4.948;2023-06-04T11:00:46;4.90;;;2.30;;
11135;SDS011;5622;50.840;4.948;2023-06-04T11:03:15;2.10;;;1.90;;
11135;SDS011;5622;50.840;4.948;2023-06-04T11:05:43;3.10;;;2.00;;
11135;SDS011;5622;50.840;4.948;2023-06-04T11:08:11;3.35;;;2.45;;
11135;SDS011;5622;50.840;4.948;2023-06-04T11:10:40;3.58;;;2.40;;
11135;SDS011;5622;50.840;4.948;2023-06-04T11:13:09;2.63;;;2.00;;
11135;SDS011;5622;50.840;4.948;2023-06-04T11:15:37;3.05;;;2.05;;
11135;SDS011;5622;50.840;4.948;2023-06-04T11:18:05;3.70;;;2.00;;
11135;SDS011;5622;50.840;4.948;2023-06-04T11:20:32;4.20;;;2.15;;
11135;SDS011;5622;50.840;4.948;2023-06-04T11:23:00;3.95;;;2.20;;
11135;SDS011;5622;50.840;4.948;2023-06-04T11:25:28;3.33;;;1.75;;
11135;SDS011;5622;50.840;4.948;2023-06-04T11:27:58;4.10;;;2.10;;
11135;SDS011;5622;50.840;4.948;2023-06-04T11:30:28;2.83;;;2.00;;
11135;SDS011;5622;50.840;4.948;2023-06-04T11:33:02;5.80;;;2.38;;
11135;SDS011;5622;50.840;4.948;2023-06-04T11:35:30;3.35;;;2.20;;
11135;SDS011;5622;50.840;4.948;2023-06-04T11:37:58;3.20;;;2.03;;
11135;SDS011;5622;50.840;4.948;2023-06-04T11:40:25;2.67;;;1.83;;
11135;SDS011;5622;50.840;4.948;2023-06-04T11:42:53;2.15;;;1.88;;
11135;SDS011;5622;50.840;4.948;2023-06-04T11:45:21;2.15;;;1.80;;
11135;SDS011;5622;50.840;4.948;2023-06-04T11:47:51;4.85;;;2.13;;
11135;SDS011;5622;50.840;4.948;2023-06-04T11:50:19;5.43;;;2.00;;
11135;SDS011;5622;50.840;4.948;2023-06-04T11:52:46;2.53;;;2.13;;
11135;SDS011;5622;50.840;4.948;2023-06-04T11:55:14;2.13;;;1.85;;
11135;SDS011;5622;50.840;4.948;2023-06-04T11:57:45;2.03;;;1.77;;
11135;SDS011;5622;50.840;4.948;2023-06-04T12:00:14;2.47;;;1.73;;
11135;SDS011;5622;50.840;4.948;2023-06-04T12:02:48;2.60;;;2.05;;
11135;SDS011;5622;50.840;4.948;2023-06-04T12:05:18;3.80;;;2.25;;
11135;SDS011;5622;50.840;4.948;2023-06-04T12:07:48;2.75;;;2.03;;
11135;SDS011;5622;50.840;4.948;2023-06-04T12:10:16;2.13;;;1.90;;
11135;SDS011;5622;50.840;4.948;2023-06-04T12:12:43;4.35;;;2.17;;
11135;SDS011;5622;50.840;4.948;2023-06-04T12:15:10;3.03;;;1.90;;
11135;SDS011;5622;50.840;4.948;2023-06-04T12:17:49;5.10;;;2.00;;
11135;SDS011;5622;50.840;4.948;2023-06-04T12:20:17;7.75;;;2.15;;
11135;SDS011;5622;50.840;4.948;2023-06-04T12:22:45;7.30;;;2.58;;
11135;SDS011;5622;50.840;4.948;2023-06-04T12:25:23;3.03;;;1.98;;
11135;SDS011;5622;50.840;4.948;2023-06-04T12:27:51;4.85;;;2.05;;
11135;SDS011;5622;50.840;4.948;2023-06-04T12:30:18;2.80;;;2.03;;
11135;SDS011;5622;50.840;4.948;2023-06-04T12:32:50;2.38;;;1.95;;
11135;SDS011;5622;50.840;4.948;2023-06-04T12:35:17;3.53;;;1.92;;
11135;SDS011;5622;50.840;4.948;2023-06-04T12:37:46;4.07;;;1.95;;
11135;SDS011;5622;50.840;4.948;2023-06-04T12:40:13;3.55;;;2.30;;
11135;SDS011;5622;50.840;4.948;2023-06-04T12:42:40;3.63;;;2.10;;
11135;SDS011;5622;50.840;4.948;2023-06-04T12:45:09;2.33;;;2.13;;
11135;SDS011;5622;50.840;4.948;2023-06-04T12:47:39;4.65;;;2.10;;
11135;SDS011;5622;50.840;4.948;2023-06-04T12:50:09;3.85;;;2.80;;
11135;SDS011;5622;50.840;4.948;2023-06-04T12:52:36;5.78;;;2.20;;
11135;SDS011;5622;50.840;4.948;2023-06-04T12:55:03;5.72;;;2.00;;
11135;SDS011;5622;50.840;4.948;2023-06-04T12:57:31;4.95;;;2.60;;
11135;SDS011;5622;50.840;4.948;2023-06-04T12:59:58;3.92;;;2.25;;
11135;SDS011;5622;50.840;4.948;2023-06-04T13:02:25;4.20;;;2.28;;
11135;SDS011;5622;50.840;4.948;2023-06-04T13:04:53;3.15;;;2.30;;
11135;SDS011;5622;50.840;4.948;2023-06-04T13:07:22;2.13;;;1.92;;
11135;SDS011;5622;50.840;4.948;2023-06-04T13:09:49;2.22;;;2.03;;
11135;SDS011;5622;50.840;4.948;2023-06-04T13:12:16;2.72;;;2.17;;
11135;SDS011;5622;50.840;4.948;2023-06-04T13:14:43;4.72;;;2.20;;
11135;SDS011;5622;50.840;4.948;2023-06-04T13:17:11;2.75;;;2.00;;
11135;SDS011;5622;50.840;4.948;2023-06-04T13:19:38;5.05;;;2.50;;
11135;SDS011;5622;50.840;4.948;2023-06-04T13:22:05;3.38;;;2.15;;
11135;SDS011;5622;50.840;4.948;2023-06-04T13:24:35;4.28;;;2.35;;
11135;SDS011;5622;50.840;4.948;2023-06-04T13:27:03;2.30;;;2.00;;
11135;SDS011;5622;50.840;4.948;2023-06-04T13:29:30;3.00;;;2.10;;
11135;SDS011;5622;50.840;4.948;2023-06-04T13:31:58;4.55;;;2.38;;
11135;SDS011;5622;50.840;4.948;2023-06-04T13:34:26;5.97;;;2.20;;
11135;SDS011;5622;50.840;4.948;2023-06-04T13:36:53;2.90;;;2.20;;
11135;SDS011;5622;50.840;4.948;2023-06-04T13:39:21;2.28;;;2.08;;
11135;SDS011;5622;50.840;4.948;2023-06-04T13:41:51;4.03;;;2.10;;
11135;SDS011;5622;50.840;4.948;2023-06-04T13:44:19;3.70;;;2.00;;
11135;SDS011;5622;50.840;4.948;2023-06-04T13:46:51;3.78;;;2.08;;
11135;SDS011;5622;50.840;4.948;2023-06-04T13:49:18;3.73;;;2.10;;
11135;SDS011;5622;50.840;4.948;2023-06-04T13:51:45;4.10;;;2.28;;
11135;SDS011;5622;50.840;4.948;2023-06-04T13:54:12;3.42;;;1.98;;
11135;SDS011;5622;50.840;4.948;2023-06-04T13:56:39;4.20;;;2.17;;
11135;SDS011;5622;50.840;4.948;2023-06-04T13:59:08;2.50;;;2.20;;
11135;SDS011;5622;50.840;4.948;2023-06-04T14:01:35;4.35;;;2.63;;
11135;SDS011;5622;50.840;4.948;2023-06-04T14:04:02;3.55;;;2.30;;
11135;SDS011;5622;50.840;4.948;2023-06-04T14:06:31;2.85;;;1.95;;
11135;SDS011;5622;50.840;4.948;2023-06-04T14:09:00;2.72;;;2.15;;
11135;SDS011;5622;50.840;4.948;2023-06-04T14:11:28;3.47;;;2.20;;
11135;SDS011;5622;50.840;4.948;2023-06-04T14:13:55;3.25;;;2.05;;
11135;SDS011;5622;50.840;4.948;2023-06-04T14:16:23;2.42;;;2.22;;
11135;SDS011;5622;50.840;4.948;2023-06-04T14:18:50;3.17;;;2.22;;
11135;SDS011;5622;50.840;4.948;2023-06-04T14:21:18;2.90;;;2.00;;
11135;SDS011;5622;50.840;4.948;2023-06-04T14:23:46;3.95;;;2.17;;
11135;SDS011;5622;50.840;4.948;2023-06-04T14:26:14;2.45;;;2.15;;
11135;SDS011;5622;50.840;4.948;2023-06-04T14:28:42;3.53;;;2.10;;
11135;SDS011;5622;50.840;4.948;2023-06-04T14:31:10;2.58;;;2.13;;
11135;SDS011;5622;50.840;4.948;2023-06-04T14:33:38;3.92;;;2.00;;
11135;SDS011;5622;50.840;4.948;2023-06-04T14:36:05;2.85;;;2.35;;
11135;SDS011;5622;50.840;4.948;2023-06-04T14:38:32;2.08;;;1.83;;
11135;SDS011;5622;50.840;4.948;2023-06-04T14:41:00;6.18;;;2.17;;
11135;SDS011;5622;50.840;4.948;2023-06-04T14:43:27;3.85;;;2.15;;
11135;SDS011;5622;50.840;4.948;2023-06-04T14:45:54;3.95;;;2.90;;
11135;SDS011;5622;50.840;4.948;2023-06-04T14:48:21;5.35;;;2.10;;
11135;SDS011;5622;50.840;4.948;2023-06-04T17:13:32;4.15;;;1.73;;
11135;SDS011;5622;50.840;4.948;2023-06-04T17:16:01;4.70;;;2.00;;
11135;SDS011;5622;50.840;4.948;2023-06-04T17:18:30;3.47;;;1.93;;
11135;SDS011;5622;50.840;4.948;2023-06-04T17:20:58;4.47;;;2.25;;
11135;SDS011;5622;50.840;4.948;2023-06-04T17:23:31;3.13;;;2.07;;
11135;SDS011;5622;50.840;4.948;2023-06-04T17:25:59;9.97;;;2.80;;
11135;SDS011;5622;50.840;4.948;2023-06-04T17:28:26;3.22;;;1.75;;
11135;SDS011;5622;50.840;4.948;2023-06-04T17:30:56;4.63;;;2.10;;